Time;durP1;ratioP1;P1;durP2;ratioP2;P2;SDS_P1;SDS_P2;PMS_P1;PMS_P2;Temp;Humidity;BMP_temperature;BMP_pressure;BME280_temperature;BME280_humidity;BME280_pressure;Samples;Min_cycle;Max_cycle;Signal;HPM_P1;HPM_P2
2023/08/18 00:01:19;;;;;;;24.70;11.02;;;;;;;26.40;51.07;101404.50;5054705;28;20124;-62
2023/08/18 00:03:45;;;;;;;22.15;10.27;;;;;;;26.39;50.95;101412.94;5053299;28;20040;-61
2023/08/18 00:06:11;;;;;;;15.57;9.73;;;;;;;26.39;50.61;101410.19;5054537;28;20106;-62
2023/08/18 00:08:36;;;;;;;18.60;8.68;;;;;;;26.34;51.08;101407.28;5054610;28;20029;-62
2023/08/18 00:11:02;;;;;;;14.68;9.18;;;;;;;26.35;51.47;101403.47;5054607;28;20447;-62
2023/08/18 00:13:28;;;;;;;16.85;9.43;;;;;;;26.33;51.83;101408.31;5053456;28;20100;-62
2023/08/18 00:15:53;;;;;;;19.77;10.02;;;;;;;26.32;51.29;101409.41;5054412;28;20500;-61
2023/08/18 00:18:18;;;;;;;16.30;10.52;;;;;;;26.33;51.03;101413.81;5054366;28;20025;-62
2023/08/18 00:20:44;;;;;;;13.80;9.35;;;;;;;26.33;51.05;101408.31;5036484;28;20408;-62
2023/08/18 00:23:09;;;;;;;17.65;11.10;;;;;;;26.32;51.81;101409.41;5054201;28;20036;-62
2023/08/18 00:25:35;;;;;;;21.70;9.93;;;;;;;26.33;51.55;101409.16;5054411;28;20037;-62
2023/08/18 00:28:00;;;;;;;22.83;10.77;;;;;;;26.32;51.13;101404.75;5052505;28;20043;-61
2023/08/18 00:30:26;;;;;;;18.70;10.15;;;;;;;26.33;51.52;101413.81;5052825;28;20033;-62
2023/08/18 00:32:51;;;;;;;23.00;12.07;;;;;;;26.34;51.66;101410.03;5053931;28;20523;-62
2023/08/18 00:35:17;;;;;;;19.55;11.25;;;;;;;26.32;51.70;101409.41;5054270;28;20037;-62
2023/08/18 00:37:43;;;;;;;15.80;10.57;;;;;;;26.32;51.25;101406.66;5053885;28;20044;-63
2023/08/18 00:40:10;;;;;;;19.02;12.00;;;;;;;26.30;51.50;101401.38;5053892;28;20037;-62
2023/08/18 00:42:35;;;;;;;20.52;10.32;;;;;;;26.29;51.46;101407.94;5052531;28;20036;-62
2023/08/18 00:45:00;;;;;;;19.23;11.77;;;;;;;26.32;51.25;101401.16;5053600;28;20067;-63
2023/08/18 00:47:26;;;;;;;17.45;10.95;;;;;;;26.31;51.72;101400.31;5053625;28;20174;-63
2023/08/18 00:49:52;;;;;;;20.25;11.43;;;;;;;26.32;51.58;101412.16;5052576;28;20025;-63
2023/08/18 00:52:18;;;;;;;22.45;13.43;;;;;;;26.29;51.93;101404.34;5001065;28;20040;-59
2023/08/18 00:54:44;;;;;;;18.55;11.65;;;;;;;26.30;51.60;101414.28;5051192;28;20037;-60
2023/08/18 00:57:10;;;;;;;19.85;12.80;;;;;;;26.32;51.41;101414.91;5053914;28;20384;-60
2023/08/18 00:59:36;;;;;;;24.70;13.88;;;;;;;26.32;52.10;101412.16;5035572;28;20037;-60
2023/08/18 01:02:05;;;;;;;27.40;14.40;;;;;;;26.32;51.74;101425.88;5053233;28;20112;-60
2023/08/18 01:04:31;;;;;;;26.15;15.20;;;;;;;26.32;51.80;101417.66;5053532;28;20040;-60
2023/08/18 01:06:57;;;;;;;26.27;14.25;;;;;;;26.32;51.73;101396.53;5015367;28;20049;-60
2023/08/18 01:09:23;;;;;;;28.17;14.93;;;;;;;26.32;51.58;101401.16;5032198;28;20029;-60
2023/08/18 01:12:08;;;;;;;26.48;14.93;;;;;;;26.34;52.15;101410.03;5051777;28;20051;-62
2023/08/18 01:14:50;;;;;;;28.75;15.35;;;;;;;26.33;51.93;101397.34;5052057;28;20029;-60
2023/08/18 01:17:25;;;;;;;32.25;14.05;;;;;;;26.34;51.51;101404.53;5053453;28;20048;-60
2023/08/18 01:19:51;;;;;;;33.38;16.30;;;;;;;26.34;51.80;101399.03;5051864;28;20029;-59
2023/08/18 01:22:17;;;;;;;35.75;18.02;;;;;;;26.34;51.78;101404.53;5035210;28;20373;-60
2023/08/18 01:24:43;;;;;;;35.78;18.48;;;;;;;26.32;52.06;101401.16;5052005;28;20025;-60
2023/08/18 01:27:08;;;;;;;39.88;18.42;;;;;;;26.31;51.58;101389.31;5051704;28;20025;-60
2023/08/18 01:29:34;;;;;;;37.42;17.83;;;;;;;26.30;52.03;101386.81;5028171;28;20515;-60
2023/08/18 01:32:01;;;;;;;33.85;17.40;;;;;;;26.30;51.71;101379.38;5039022;28;20053;-60
2023/08/18 01:34:27;;;;;;;37.72;18.48;;;;;;;26.29;52.45;101374.97;5052693;28;20047;-60
2023/08/18 01:36:55;;;;;;;44.15;19.67;;;;;;;26.27;52.02;101365.25;5051922;28;20021;-60
2023/08/18 01:39:21;;;;;;;40.15;18.98;;;;;;;26.26;51.95;101366.31;5052966;28;20589;-60
2023/08/18 01:41:49;;;;;;;44.88;19.48;;;;;;;26.26;52.37;101369.06;5051868;28;20033;-60
2023/08/18 01:44:15;;;;;;;44.42;19.73;;;;;;;26.27;51.89;101368.00;5051664;28;20033;-60
2023/08/18 01:46:41;;;;;;;44.63;19.88;;;;;;;26.24;51.87;101372.03;5051656;28;20052;-60
2023/08/18 01:49:07;;;;;;;49.63;20.58;;;;;;;26.25;52.21;101378.34;5052752;28;20025;-60
2023/08/18 01:51:32;;;;;;;49.10;21.73;;;;;;;26.24;52.24;101372.03;5051527;28;20388;-60
2023/08/18 01:53:57;;;;;;;48.85;21.73;;;;;;;26.24;51.84;101371.19;5052973;28;20045;-60
2023/08/18 01:56:23;;;;;;;49.22;21.67;;;;;;;26.22;52.36;101362.31;5052828;28;20036;-60
2023/08/18 01:58:48;;;;;;;56.53;21.95;;;;;;;26.21;52.23;101372.47;5052461;28;20045;-60
2023/08/18 02:01:13;;;;;;;50.22;21.42;;;;;;;26.19;51.96;101373.72;5051824;28;20519;-62
2023/08/18 02:03:39;;;;;;;49.45;22.40;;;;;;;26.21;52.32;101363.38;5051258;28;20032;-62
2023/08/18 02:06:04;;;;;;;49.03;23.35;;;;;;;26.22;51.80;101362.31;5051270;28;20036;-61
2023/08/18 02:08:30;;;;;;;49.28;21.63;;;;;;;26.22;51.85;101359.56;5052419;28;20500;-62
2023/08/18 02:11:02;;;;;;;52.95;23.13;;;;;;;26.20;52.69;101353.44;5051318;28;20033;-62
2023/08/18 02:13:28;;;;;;;;;;;;;;;26.22;51.74;101357.66;5045298;28;20040;-62
2023/08/18 02:15:53;;;;;;;54.72;22.65;;;;;;;26.21;52.00;101355.16;5051071;28;19920;-63
2023/08/18 02:18:18;;;;;;;58.45;23.27;;;;;;;26.21;51.94;101360.63;5054740;28;20033;-62
2023/08/18 02:20:44;;;;;;;52.67;23.75;;;;;;;26.24;51.56;101362.94;5056668;28;20041;-62
2023/08/18 02:23:09;;;;;;;57.63;23.27;;;;;;;26.22;51.87;101357.66;5056573;28;20086;-62
2023/08/18 02:25:34;;;;;;;61.03;26.13;;;;;;;26.19;51.87;101347.09;5056412;28;20489;-62
2023/08/18 02:28:00;;;;;;;55.42;23.08;;;;;;;26.16;52.32;101353.03;5056485;28;20032;-61
2023/08/18 02:30:26;;;;;;;56.55;23.90;;;;;;;26.14;52.14;101352.41;5054996;28;20055;-62
2023/08/18 02:32:51;;;;;;;58.40;23.48;;;;;;;26.17;51.69;101353.88;5056278;28;20032;-63
2023/08/18 02:35:17;;;;;;;54.10;23.20;;;;;;;26.17;51.61;101353.88;5055047;28;20029;-62
2023/08/18 02:37:42;;;;;;;58.35;24.05;;;;;;;26.13;51.96;101349.88;5055149;28;20064;-61
2023/08/18 02:40:08;;;;;;;57.30;23.05;;;;;;;26.13;52.42;101347.94;5038156;28;20508;-62
2023/08/18 02:42:35;;;;;;;52.78;23.92;;;;;;;26.13;51.82;101347.13;5056214;28;20115;-62
2023/08/18 02:45:00;;;;;;;56.30;24.30;;;;;;;26.12;51.65;101351.78;5055050;28;20037;-61
2023/08/18 02:47:26;;;;;;;53.33;23.10;;;;;;;26.08;51.93;101349.66;5054851;28;20025;-61
2023/08/18 02:49:51;;;;;;;62.03;24.90;;;;;;;26.08;51.92;101355.16;5054731;28;20029;-62
2023/08/18 02:52:17;;;;;;;55.10;24.75;;;;;;;26.05;51.88;101348.19;5054946;28;20079;-61
2023/08/18 02:54:42;;;;;;;61.65;25.08;;;;;;;26.05;52.25;101351.78;5056091;28;20484;-61
2023/08/18 02:57:08;;;;;;;56.78;25.70;;;;;;;26.05;51.97;101351.78;5056165;28;20032;-61
2023/08/18 02:59:34;;;;;;;63.05;26.45;;;;;;;26.04;51.96;101339.13;5056948;28;20484;-62
2023/08/18 03:01:59;;;;;;;60.42;26.13;;;;;;;26.07;51.78;101353.47;5056718;28;20065;-61
2023/08/18 03:04:25;;;;;;;58.05;26.20;;;;;;;26.05;51.63;101349.03;5056623;28;20099;-62
2023/08/18 03:06:50;;;;;;;58.60;25.48;;;;;;;26.04;51.95;101344.63;5056947;28;20443;-61
2023/08/18 03:09:16;;;;;;;59.28;25.73;;;;;;;26.01;51.94;101342.31;5057834;28;20511;-61
2023/08/18 03:11:42;;;;;;;60.00;26.10;;;;;;;26.02;51.70;101352.22;5055820;28;20501;-62
2023/08/18 03:14:08;;;;;;;61.70;26.88;;;;;;;26.02;52.44;101349.47;5054854;28;20120;-62
2023/08/18 03:16:33;;;;;;;64.13;26.40;;;;;;;26.01;51.76;101345.06;5037696;28;20037;-61
2023/08/18 03:18:59;;;;;;;62.95;26.90;;;;;;;25.99;52.56;101349.91;5055546;28;20056;-62
2023/08/18 03:21:24;;;;;;;60.67;26.58;;;;;;;25.99;51.88;101343.59;5055588;28;20033;-62
2023/08/18 03:23:49;;;;;;;69.32;28.35;;;;;;;25.96;52.19;101338.53;5054131;28;20037;-61
2023/08/18 03:26:15;;;;;;;64.15;27.73;;;;;;;25.95;52.25;101345.94;5024901;28;20117;-61
2023/08/18 03:28:40;;;;;;;63.22;26.17;;;;;;;25.93;52.35;101350.81;5047938;28;20048;-62
2023/08/18 03:31:06;;;;;;;60.95;24.92;;;;;;;25.93;51.99;101359.03;5054829;28;20489;-61
2023/08/18 03:33:32;;;;;;;69.70;28.23;;;;;;;25.89;52.04;101346.78;5053877;28;20457;-62
2023/08/18 03:35:58;;;;;;;57.13;25.20;;;;;;;25.91;52.20;101343.81;5053886;28;20134;-62
2023/08/18 03:38:24;;;;;;;57.95;25.33;;;;;;;25.88;51.91;101345.09;5055079;28;20412;-62
2023/08/18 03:40:50;;;;;;;53.28;23.70;;;;;;;25.86;51.89;101347.22;5053813;28;20120;-61
2023/08/18 03:43:16;;;;;;;50.83;23.27;;;;;;;25.84;52.44;101351.25;5053886;28;20055;-62
2023/08/18 03:45:41;;;;;;;49.30;23.23;;;;;;;25.84;52.15;101349.34;5055110;28;20032;-62
2023/08/18 03:48:07;;;;;;;53.65;23.63;;;;;;;25.82;52.09;101351.47;5054039;28;20517;-62
2023/08/18 03:50:32;;;;;;;55.92;25.13;;;;;;;25.82;52.38;101348.72;5054995;28;20033;-61
2023/08/18 03:52:58;;;;;;;51.65;23.77;;;;;;;25.82;52.17;101356.97;5053859;28;20040;-62
2023/08/18 03:55:23;;;;;;;53.90;25.42;;;;;;;25.82;52.13;101351.47;5054617;28;20033;-61
2023/08/18 03:57:48;;;;;;;56.28;25.05;;;;;;;25.80;51.88;101348.06;5053473;28;20045;-61
2023/08/18 04:00:14;;;;;;;58.90;26.83;;;;;;;25.75;52.15;101339.66;5053387;28;20033;-62
2023/08/18 04:02:39;;;;;;;64.32;27.13;;;;;;;25.73;52.41;101350.03;5054745;28;20045;-62
2023/08/18 04:05:06;;;;;;;72.00;29.67;;;;;;;25.73;52.31;101352.75;5054750;28;20389;-61
2023/08/18 04:07:31;;;;;;;61.85;27.02;;;;;;;25.72;52.72;101351.06;5054962;28;20033;-61
2023/08/18 04:09:56;;;;;;;64.25;27.35;;;;;;;25.70;52.69;101349.59;5053467;28;20040;-62
2023/08/18 04:12:22;;;;;;;69.53;28.98;;;;;;;25.71;52.30;101352.09;5053464;28;20116;-61
2023/08/18 04:14:47;;;;;;;69.25;29.67;;;;;;;25.69;52.35;101346.00;5053119;28;20093;-61
2023/08/18 04:17:12;;;;;;;71.25;29.25;;;;;;;25.68;52.65;101349.81;5053211;28;20029;-62
2023/08/18 04:19:38;;;;;;;76.68;30.67;;;;;;;25.64;51.99;101354.03;5054519;28;20064;-62
2023/08/18 04:22:03;;;;;;;71.55;28.42;;;;;;;25.62;52.16;101356.16;5054712;28;20382;-62
2023/08/18 04:24:29;;;;;;;67.53;28.85;;;;;;;25.58;52.57;101360.38;5054765;28;20073;-61
2023/08/18 04:26:59;;;;;;;60.15;28.02;;;;;;;25.56;52.30;101354.28;5054644;28;20111;-62
2023/08/18 04:29:27;;;;;;;64.93;26.42;;;;;;;25.59;52.64;101351.09;5053238;28;20049;-62
2023/08/18 04:31:53;;;;;;;69.45;28.13;;;;;;;25.61;52.50;101354.47;5053063;28;20028;-62
2023/08/18 04:34:18;;;;;;;70.53;27.55;;;;;;;25.61;52.13;101354.47;5053079;28;20045;-62
2023/08/18 04:36:44;;;;;;;66.38;26.40;;;;;;;25.61;52.35;101350.88;5054300;28;20033;-62
2023/08/18 04:39:13;;;;;;;61.28;28.40;;;;;;;25.62;52.16;101356.16;5052932;28;20522;-62
2023/08/18 04:41:38;;;;;;;64.82;26.98;;;;;;;25.61;52.15;101354.47;5053508;28;20124;-61
2023/08/18 04:44:04;;;;;;;59.83;26.30;;;;;;;25.55;52.80;101338.00;5053234;28;20096;-61
2023/08/18 04:46:30;;;;;;;57.80;27.00;;;;;;;25.60;52.99;101352.78;5053058;28;20029;-62
2023/08/18 04:48:56;;;;;;;64.20;27.48;;;;;;;25.56;52.55;101357.03;5036580;28;20408;-62
2023/08/18 04:51:22;;;;;;;64.00;28.45;;;;;;;25.55;52.42;101366.31;5052546;28;20029;-62
2023/08/18 04:53:47;;;;;;;61.55;27.20;;;;;;;25.56;52.51;101367.16;5052414;28;20057;-61
2023/08/18 04:56:12;;;;;;;63.63;26.77;;;;;;;25.56;52.84;101364.41;5052304;28;20060;-61
2023/08/18 04:58:38;;;;;;;55.90;25.77;;;;;;;25.56;52.33;101362.50;5052421;28;20064;-62
2023/08/18 05:01:04;;;;;;;54.75;24.45;;;;;;;25.54;52.67;101361.88;5052303;28;20033;-61
2023/08/18 05:03:30;;;;;;;51.83;23.20;;;;;;;25.53;53.02;101351.97;5052209;28;20029;-64
2023/08/18 05:06:08;;;;;;;56.35;23.42;;;;;;;25.53;52.32;101357.44;5052077;28;20374;-62
2023/08/18 05:08:35;;;;;;;59.45;23.73;;;;;;;25.51;52.35;101355.97;5052287;28;20056;-62
2023/08/18 05:11:05;;;;;;;53.53;23.20;;;;;;;25.49;52.67;101350.69;5053422;28;20036;-62
2023/08/18 05:13:35;;;;;;;60.10;24.05;;;;;;;25.48;52.32;101351.75;5052972;28;20029;-61
2023/08/18 05:16:02;;;;;;;65.30;23.77;;;;;;;25.48;52.39;101348.16;5035336;28;20017;-62
2023/08/18 05:18:29;;;;;;;71.78;26.63;;;;;;;25.45;52.35;101355.75;5053115;28;20470;-62
2023/08/18 05:20:55;;;;;;;57.88;24.52;;;;;;;25.42;52.58;101347.09;5052205;28;20032;-62
2023/08/18 05:23:20;;;;;;;65.70;25.35;;;;;;;25.43;52.90;101346.06;5035388;28;20106;-62
2023/08/18 05:25:48;;;;;;;58.15;24.33;;;;;;;25.43;52.49;101357.03;5051925;28;20029;-62
2023/08/18 05:28:14;;;;;;;60.40;24.20;;;;;;;25.43;52.55;101354.28;5035412;28;20036;-64
2023/08/18 05:30:44;;;;;;;65.18;26.80;;;;;;;25.42;53.06;101349.84;5051885;28;20539;-62
2023/08/18 05:33:09;;;;;;;64.03;25.23;;;;;;;25.44;52.86;101350.47;5051846;28;20485;-62
2023/08/18 05:35:35;;;;;;;66.60;25.35;;;;;;;25.49;52.44;101355.34;5051861;28;20072;-64
2023/08/18 05:38:00;;;;;;;62.60;25.70;;;;;;;25.47;52.74;101355.56;5051652;28;20508;-62
2023/08/18 05:40:26;;;;;;;61.47;26.58;;;;;;;25.45;52.66;101343.94;5052621;28;20071;-61
2023/08/18 05:42:51;;;;;;;64.95;25.17;;;;;;;25.46;52.84;101345.63;5052930;28;20053;-62
2023/08/18 05:45:17;;;;;;;67.07;26.55;;;;;;;25.46;52.96;101337.41;5034945;28;20075;-61
2023/08/18 05:47:42;;;;;;;69.28;25.80;;;;;;;25.40;52.55;101330.00;5052706;28;20039;-62
2023/08/18 05:50:11;;;;;;;66.38;25.70;;;;;;;25.45;52.60;101342.03;5034821;28;20033;-62
2023/08/18 05:52:37;;;;;;;63.63;24.77;;;;;;;25.43;52.67;101335.06;5052310;28;20500;-62
2023/08/18 05:55:04;;;;;;;60.05;24.83;;;;;;;25.47;53.17;101344.56;5051536;28;20044;-63
2023/08/18 05:57:30;;;;;;;62.03;23.33;;;;;;;25.48;53.41;101349.03;5018726;28;20043;-61
2023/08/18 05:59:55;;;;;;;60.80;25.90;;;;;;;25.48;52.59;101354.50;5051215;28;20489;-62
2023/08/18 06:02:20;;;;;;;65.40;25.88;;;;;;;25.49;53.16;101347.94;5052613;28;20056;-62
2023/08/18 06:04:46;;;;;;;65.43;26.02;;;;;;;25.51;53.21;101350.50;5052718;28;20033;-62
2023/08/18 06:07:11;;;;;;;60.95;24.65;;;;;;;25.52;52.90;101350.25;5052267;28;20059;-62
2023/08/18 06:09:37;;;;;;;59.95;25.85;;;;;;;25.55;53.07;101333.38;5051428;28;20029;-62
2023/08/18 06:12:02;;;;;;;69.22;26.23;;;;;;;25.56;53.03;101340.56;5051380;28;20514;-61
2023/08/18 06:14:28;;;;;;;65.90;26.70;;;;;;;25.56;52.76;101339.72;5052504;28;20584;-63
2023/08/18 06:16:53;;;;;;;64.68;24.95;;;;;;;25.58;52.82;101349.41;5052326;28;20029;-62
2023/08/18 06:19:18;;;;;;;68.30;25.13;;;;;;;25.59;52.67;101348.38;5052138;28;20493;-62
2023/08/18 06:21:44;;;;;;;68.55;25.85;;;;;;;25.57;52.77;101350.50;5052542;28;20404;-62
2023/08/18 06:24:09;;;;;;;71.88;26.80;;;;;;;25.60;52.97;101351.97;5051143;28;20033;-62
2023/08/18 06:26:35;;;;;;;49.05;21.42;;;;;;;25.62;53.13;101347.94;5052451;28;20060;-62
2023/08/18 06:29:00;;;;;;;50.25;21.67;;;;;;;25.61;52.64;101357.22;5052407;28;20037;-62
2023/08/18 06:31:26;;;;;;;51.13;20.17;;;;;;;25.63;53.28;101355.09;5051274;28;20507;-62
2023/08/18 06:33:51;;;;;;;54.95;22.08;;;;;;;25.63;53.20;101354.28;5034228;28;20053;-63
2023/08/18 06:36:16;;;;;;;53.15;20.45;;;;;;;25.63;52.61;101352.34;5050814;28;20041;-62
2023/08/18 06:38:42;;;;;;;56.13;21.83;;;;;;;25.65;53.09;101353.00;5050771;28;20029;-62
2023/08/18 06:41:09;;;;;;;56.58;24.52;;;;;;;25.66;52.70;101345.59;5052149;28;20511;-62
2023/08/18 06:43:34;;;;;;;54.22;21.15;;;;;;;25.67;52.98;101345.38;5052105;28;20033;-61
2023/08/18 06:45:59;;;;;;;51.53;21.15;;;;;;;25.68;53.00;101343.50;5051919;28;20112;-62
2023/08/18 06:48:25;;;;;;;60.35;22.90;;;;;;;25.68;53.17;101338.00;5050639;28;20102;-62
2023/08/18 06:50:50;;;;;;;64.47;23.15;;;;;;;25.73;53.35;101338.19;5034343;28;20082;-62
2023/08/18 06:53:16;;;;;;;61.20;23.65;;;;;;;25.76;52.96;101338.59;5052132;28;20112;-61
2023/08/18 06:55:41;;;;;;;61.40;23.20;;;;;;;25.82;52.94;101340.50;5052099;28;20053;-62
2023/08/18 06:58:06;;;;;;;61.03;23.60;;;;;;;25.87;52.84;101342.56;5052366;28;20041;-61
2023/08/18 07:00:32;;;;;;;52.45;21.45;;;;;;;25.88;53.30;101344.28;5050582;28;20441;-62
2023/08/18 07:02:57;;;;;;;57.10;20.60;;;;;;;25.90;53.10;101348.50;5034137;28;20037;-62
2023/08/18 07:05:24;;;;;;;56.00;22.15;;;;;;;25.90;52.46;101336.66;5054230;28;20166;-62
2023/08/18 07:07:50;;;;;;;66.72;22.65;;;;;;;25.97;52.48;101332.81;5054419;28;20055;-62
2023/08/18 07:10:15;;;;;;;58.70;21.17;;;;;;;26.01;52.54;101339.56;5055597;28;20132;-62
2023/08/18 07:12:41;;;;;;;51.80;20.55;;;;;;;26.05;52.32;101335.31;5037663;28;20053;-61
2023/08/18 07:15:06;;;;;;;60.28;22.75;;;;;;;26.10;52.60;101336.56;5054463;28;20025;-62
2023/08/18 07:17:31;;;;;;;61.53;23.88;;;;;;;26.10;52.63;101334.69;5055470;28;20083;-62
2023/08/18 07:19:57;;;;;;;67.03;25.42;;;;;;;26.13;52.42;101325.16;5055541;28;20040;-62
2023/08/18 07:22:22;;;;;;;63.63;24.23;;;;;;;26.17;52.36;101326.41;5055496;28;20090;-62
2023/08/18 07:24:48;;;;;;;71.25;23.67;;;;;;;26.21;52.32;101322.19;5054854;28;20029;-62
2023/08/18 07:27:14;;;;;;;64.53;26.27;;;;;;;26.25;52.38;101320.66;5055266;28;20400;-62
2023/08/18 07:29:39;;;;;;;67.07;24.60;;;;;;;26.29;52.88;101335.66;5053938;28;20033;-63
2023/08/18 07:32:05;;;;;;;65.07;24.70;;;;;;;26.28;52.65;101328.47;5055178;28;20033;-63
2023/08/18 07:34:30;;;;;;;69.38;24.98;;;;;;;26.30;52.51;101331.88;5054931;28;20041;-63
2023/08/18 07:36:56;;;;;;;68.95;25.63;;;;;;;26.27;52.32;101326.81;5055026;28;20043;-63
2023/08/18 07:39:22;;;;;;;68.53;27.98;;;;;;;26.27;52.89;101324.88;5053859;28;20032;-63
2023/08/18 07:41:47;;;;;;;65.88;27.15;;;;;;;26.28;52.89;101325.72;5054130;28;20041;-63
2023/08/18 07:44:12;;;;;;;72.38;27.08;;;;;;;26.30;52.61;101329.94;5055139;28;20025;-63
2023/08/18 07:46:38;;;;;;;73.95;27.38;;;;;;;26.32;52.04;101330.56;5053684;28;20044;-63
2023/08/18 07:49:04;;;;;;;67.78;25.48;;;;;;;26.34;52.48;101327.59;5037196;28;20021;-64
2023/08/18 07:51:30;;;;;;;60.30;25.02;;;;;;;26.38;52.47;101323.34;5054912;28;20515;-61
2023/08/18 07:53:55;;;;;;;61.45;25.52;;;;;;;26.42;52.27;101338.31;5053698;28;20040;-63
2023/08/18 07:56:20;;;;;;;51.28;23.75;;;;;;;26.45;52.70;101329.63;5055076;28;20116;-62
2023/08/18 07:58:46;;;;;;;63.20;25.75;;;;;;;26.52;52.30;101341.44;5054735;28;20029;-63
2023/08/18 08:01:11;;;;;;;51.85;24.92;;;;;;;26.53;52.20;101332.13;5053494;28;20037;-62
2023/08/18 08:03:36;;;;;;;55.30;23.48;;;;;;;26.58;52.37;101340.53;5053420;28;20032;-62
2023/08/18 08:06:04;;;;;;;46.92;22.27;;;;;;;26.58;52.31;101337.78;5054506;28;20033;-63
2023/08/18 08:08:30;;;;;;;52.88;22.48;;;;;;;26.61;52.78;101334.59;5053460;28;20089;-62
2023/08/18 08:10:55;;;;;;;49.10;22.98;;;;;;;26.63;52.43;101346.25;5053200;28;20033;-61
2023/08/18 08:13:21;;;;;;;48.03;21.92;;;;;;;26.65;52.61;101346.00;5054424;28;20029;-61
2023/08/18 08:15:46;;;;;;;47.83;21.80;;;;;;;26.68;52.72;101335.41;5054067;28;20025;-62
2023/08/18 08:18:15;;;;;;;53.80;24.55;;;;;;;26.76;51.91;101337.88;5054326;28;20029;-62
2023/08/18 08:20:41;;;;;;;47.45;21.70;;;;;;;26.81;51.88;101346.34;5054477;28;20029;-62
2023/08/18 08:23:07;;;;;;;47.53;20.63;;;;;;;26.82;52.64;101339.78;5054278;28;20059;-62
2023/08/18 08:25:34;;;;;;;39.80;20.05;;;;;;;26.83;52.34;101346.94;5052972;28;20068;-61
2023/08/18 08:27:59;;;;;;;41.08;19.15;;;;;;;26.85;51.94;101346.75;5053173;28;20040;-62
2023/08/18 08:30:25;;;;;;;42.63;18.13;;;;;;;26.89;51.86;101348.81;5053218;28;20377;-62
2023/08/18 08:32:50;;;;;;;43.65;19.80;;;;;;;26.89;52.09;101345.22;5053744;28;20427;-62
2023/08/18 08:35:16;;;;;;;38.67;18.83;;;;;;;26.92;51.95;101344.78;5054018;28;20029;-62
2023/08/18 08:37:42;;;;;;;37.30;18.38;;;;;;;26.96;51.91;101355.13;5054080;28;20037;-62
2023/08/18 08:40:17;;;;;;;37.50;19.90;;;;;;;26.98;51.84;101358.47;5052676;28;20075;-62
2023/08/18 08:42:42;;;;;;;37.42;18.88;;;;;;;27.00;52.41;101355.50;5052807;28;20120;-63
2023/08/18 08:45:09;;;;;;;38.70;19.08;;;;;;;27.04;52.81;101368.59;5052550;28;20053;-62
2023/08/18 08:47:35;;;;;;;35.42;18.40;;;;;;;27.08;51.62;101363.50;5053875;28;20084;-62
2023/08/18 08:50:02;;;;;;;35.47;17.58;;;;;;;27.14;52.59;101359.81;5052597;28;20563;-62
2023/08/18 08:52:31;;;;;;;33.28;18.45;;;;;;;27.14;51.76;101360.66;5052603;28;20082;-62
2023/08/18 08:54:58;;;;;;;35.10;17.38;;;;;;;27.15;52.42;101359.59;5052459;28;20520;-62
2023/08/18 08:57:24;;;;;;;33.67;17.65;;;;;;;27.17;52.64;101357.47;5035767;28;20041;-61
2023/08/18 08:59:50;;;;;;;37.58;17.70;;;;;;;27.23;52.63;101357.63;5052345;28;20028;-61
2023/08/18 09:02:16;;;;;;;28.17;16.35;;;;;;;27.26;52.12;101359.94;5035973;28;20041;-62
2023/08/18 09:04:41;;;;;;;31.13;17.15;;;;;;;27.28;52.11;101358.63;5053554;28;20044;-61
2023/08/18 09:07:10;;;;;;;33.17;18.60;;;;;;;27.33;52.23;101363.47;5052274;28;20025;-63
2023/08/18 09:09:35;;;;;;;43.25;20.05;;;;;;;27.37;52.22;101361.94;5052301;28;20140;-64
2023/08/18 09:12:05;;;;;;;41.63;20.20;;;;;;;27.45;51.85;101364.44;5052150;28;20055;-63
2023/08/18 09:14:33;;;;;;;36.20;18.70;;;;;;;27.51;51.86;101364.38;5053343;28;20025;-62
2023/08/18 09:16:58;;;;;;;36.60;18.85;;;;;;;27.55;51.22;101365.63;5052022;28;20029;-61
2023/08/18 09:19:25;;;;;;;36.47;19.02;;;;;;;27.60;51.41;101360.25;5051719;28;20029;-61
2023/08/18 09:21:50;;;;;;;34.70;19.73;;;;;;;27.64;51.80;101363.38;5051881;28;20041;-62
2023/08/18 09:24:19;;;;;;;34.92;19.58;;;;;;;27.67;52.07;101357.41;5035384;28;20036;-62
2023/08/18 09:26:45;;;;;;;31.45;18.40;;;;;;;27.69;51.17;101358.06;5034845;28;20055;-63
2023/08/18 09:29:10;;;;;;;34.00;18.90;;;;;;;27.71;51.72;101351.25;5052864;28;20094;-62
2023/08/18 09:31:35;;;;;;;33.33;17.15;;;;;;;27.81;51.83;101349.84;5052906;28;20033;-62
2023/08/18 09:34:02;;;;;;;33.40;16.20;;;;;;;27.84;50.94;101353.00;5052825;28;20033;-62
2023/08/18 09:36:28;;;;;;;27.77;16.45;;;;;;;27.90;51.41;101352.09;5052903;28;20041;-62
2023/08/18 09:38:53;;;;;;;31.83;16.00;;;;;;;27.96;51.29;101351.16;5051546;28;20095;-62
2023/08/18 09:41:18;;;;;;;31.35;16.52;;;;;;;27.98;51.23;101349.00;5051754;28;20049;-63
2023/08/18 09:43:44;;;;;;;29.73;15.63;;;;;;;28.08;50.68;101343.84;5035073;28;20059;-62
2023/08/18 09:46:13;;;;;;;30.58;16.95;;;;;;;28.15;50.80;101344.59;5051712;28;20108;-62
2023/08/18 09:48:39;;;;;;;30.63;17.38;;;;;;;28.24;51.45;101340.44;5052761;28;20135;-62
2023/08/18 09:51:08;;;;;;;38.28;19.95;;;;;;;28.27;50.42;101342.75;5052796;28;20037;-62
2023/08/18 09:53:34;;;;;;;28.70;17.15;;;;;;;28.33;51.40;101337.38;5051405;28;20036;-62
2023/08/18 09:56:04;;;;;;;32.60;19.00;;;;;;;28.45;50.42;101332.75;5051366;28;20029;-62
2023/08/18 09:58:50;;;;;;;32.80;17.17;;;;;;;28.55;50.84;101333.00;5051386;28;20527;-62
2023/08/18 10:01:17;;;;;;;34.75;18.40;;;;;;;28.54;50.82;101342.34;5052506;28;20049;-62
2023/08/18 10:03:43;;;;;;;33.13;18.67;;;;;;;28.57;50.69;101348.25;5051173;28;20028;-62
2023/08/18 10:06:10;;;;;;;31.58;17.92;;;;;;;28.63;51.07;101341.81;5034628;28;20108;-62
2023/08/18 10:08:36;;;;;;;31.90;18.02;;;;;;;28.76;49.90;101341.59;5051226;28;20021;-62
2023/08/18 10:11:02;;;;;;;28.10;16.83;;;;;;;28.83;50.06;101336.84;5052914;28;20361;-62
2023/08/18 10:13:30;;;;;;;33.60;16.85;;;;;;;28.91;50.34;101332.88;5051309;28;20495;-62
2023/08/18 10:15:55;;;;;;;28.92;16.25;;;;;;;28.98;50.35;101333.59;5034823;28;20159;-62
2023/08/18 10:18:22;;;;;;;29.95;16.38;;;;;;;29.09;50.20;101329.22;5051483;28;20056;-63
2023/08/18 10:20:49;;;;;;;30.42;17.35;;;;;;;29.13;49.85;101330.41;5051347;28;20022;-62
2023/08/18 10:23:15;;;;;;;26.00;16.23;;;;;;;29.20;49.83;101329.19;5050845;28;20124;-62
2023/08/18 10:25:43;;;;;;;28.35;16.13;;;;;;;29.26;49.41;101328.25;5051262;28;20025;-62
2023/08/18 10:28:10;;;;;;;29.52;15.82;;;;;;;29.33;49.92;101320.72;5052410;28;20033;-62
2023/08/18 10:30:35;;;;;;;28.17;17.50;;;;;;;29.43;49.54;101318.19;5052689;28;20048;-62
2023/08/18 10:33:06;;;;;;;33.13;18.45;;;;;;;29.54;49.97;101310.97;5052089;28;20059;-62
2023/08/18 10:35:32;;;;;;;31.25;17.88;;;;;;;29.63;49.77;101304.00;5051428;28;20041;-62
2023/08/18 10:38:03;;;;;;;34.95;19.75;;;;;;;29.81;49.27;101300.28;5050934;28;20025;-62
2023/08/18 10:40:29;;;;;;;33.40;19.23;;;;;;;30.01;49.03;101289.63;5053480;28;20041;-62
2023/08/18 10:43:06;;;;;;;34.20;18.83;;;;;;;30.24;48.44;101286.75;5056351;28;20124;-62
2023/08/18 10:45:32;;;;;;;40.60;21.42;;;;;;;30.47;48.57;101278.38;5055158;28;20041;-62
2023/08/18 10:48:06;;;;;;;37.00;20.63;;;;;;;30.67;48.08;101282.59;5056468;28;20608;-62
2023/08/18 10:50:36;;;;;;;35.35;19.80;;;;;;;30.82;48.06;101266.25;5056235;28;20087;-62
2023/08/18 10:53:04;;;;;;;37.80;21.73;;;;;;;31.01;47.71;101273.22;5038231;28;20037;-62
2023/08/18 10:55:30;;;;;;;38.17;20.77;;;;;;;31.15;48.00;101263.50;5055054;28;20032;-62
2023/08/18 10:57:55;;;;;;;34.28;20.63;;;;;;;31.32;47.41;101261.53;5056487;28;20029;-62
2023/08/18 11:00:21;;;;;;;34.15;19.88;;;;;;;31.55;46.81;101266.84;5059906;28;20519;-62
2023/08/18 11:02:49;;;;;;;33.85;19.10;;;;;;;31.73;47.13;101265.69;5046647;28;20040;-62
2023/08/18 11:05:17;;;;;;;37.95;21.00;;;;;;;31.85;46.54;101265.56;5066258;28;20043;-62